sensor_id;sensor_type;location;lat;lon;timestamp;pressure;altitude;pressure_sealevel;temperature;humidity
10135;BME280;5107;48.850;8.924;2023-10-13T00:01:56;96894.19;;;19.15;56.14
10135;BME280;5107;48.850;8.924;2023-10-13T00:04:27;96893.91;;;18.98;56.36
10135;BME280;5107;48.850;8.924;2023-10-13T00:06:55;96893.56;;;18.88;56.52
10135;BME280;5107;48.850;8.924;2023-10-13T00:09:25;96888.09;;;18.83;56.58
10135;BME280;5107;48.850;8.924;2023-10-13T00:11:57;96886.88;;;18.79;56.45
10135;BME280;5107;48.850;8.924;2023-10-13T00:14:23;96883.94;;;18.87;55.98
10135;BME280;5107;48.850;8.924;2023-10-13T00:16:55;96889.69;;;18.84;56.09
10135;BME280;5107;48.850;8.924;2023-10-13T00:19:35;96876.28;;;18.97;55.27
10135;BME280;5107;48.850;8.924;2023-10-13T00:22:07;96886.59;;;19.12;54.69
10135;BME280;5107;48.850;8.924;2023-10-13T00:24:39;96889.97;;;19.01;55.13
10135;BME280;5107;48.850;8.924;2023-10-13T00:27:13;96876.47;;;18.95;54.78
10135;BME280;5107;48.850;8.924;2023-10-13T00:30:00;96881.97;;;18.76;55.69
10135;BME280;5107;48.850;8.924;2023-10-13T00:32:43;96884.97;;;18.54;56.24
10135;BME280;5107;48.850;8.924;2023-10-13T00:35:10;96875.44;;;18.34;56.74
10135;BME280;5107;48.850;8.924;2023-10-13T00:37:39;96882.94;;;18.18;57.11
10135;BME280;5107;48.850;8.924;2023-10-13T00:40:11;96881.78;;;18.39;56.72
10135;BME280;5107;48.850;8.924;2023-10-13T00:43:03;96882.50;;;18.53;56.26
10135;BME280;5107;48.850;8.924;2023-10-13T00:45:48;96863.19;;;18.64;55.39
10135;BME280;5107;48.850;8.924;2023-10-13T00:48:24;96876.69;;;18.69;55.09
10135;BME280;5107;48.850;8.924;2023-10-13T00:51:05;96878.38;;;18.64;55.23
10135;BME280;5107;48.850;8.924;2023-10-13T00:53:34;96870.19;;;18.58;55.10
10135;BME280;5107;48.850;8.924;2023-10-13T00:56:05;96886.59;;;18.55;55.23
10135;BME280;5107;48.850;8.924;2023-10-13T00:58:33;96878.66;;;18.49;54.56
10135;BME280;5107;48.850;8.924;2023-10-13T01:01:00;96874.38;;;18.48;54.17
10135;BME280;5107;48.850;8.924;2023-10-13T01:03:50;96873.09;;;18.50;54.39
10135;BME280;5107;48.850;8.924;2023-10-13T01:06:17;96882.97;;;18.43;54.48
10135;BME280;5107;48.850;8.924;2023-10-13T01:08:45;96876.50;;;18.33;54.90
10135;BME280;5107;48.850;8.924;2023-10-13T01:11:16;96882.22;;;18.36;54.88
10135;BME280;5107;48.850;8.924;2023-10-13T01:13:41;96875.44;;;18.40;54.01
10135;BME280;5107;48.850;8.924;2023-10-13T01:16:06;96874.22;;;18.36;54.76
10135;BME280;5107;48.850;8.924;2023-10-13T01:18:33;96875.66;;;18.39;54.33
10135;BME280;5107;48.850;8.924;2023-10-13T01:21:05;96865.03;;;18.32;54.39
10135;BME280;5107;48.850;8.924;2023-10-13T01:23:32;96865.63;;;18.34;54.31
10135;BME280;5107;48.850;8.924;2023-10-13T01:26:03;96866.63;;;18.33;54.29
10135;BME280;5107;48.850;8.924;2023-10-13T01:28:30;96859.09;;;18.30;54.62
10135;BME280;5107;48.850;8.924;2023-10-13T01:31:09;96855.22;;;18.26;54.63
10135;BME280;5107;48.850;8.924;2023-10-13T01:33:34;96852.81;;;18.18;55.14
10135;BME280;5107;48.850;8.924;2023-10-13T01:35:59;96853.25;;;18.08;55.91
10135;BME280;5107;48.850;8.924;2023-10-13T01:38:32;96854.31;;;18.01;56.30
10135;BME280;5107;48.850;8.924;2023-10-13T01:40:58;96847.13;;;18.08;55.87
10135;BME280;5107;48.850;8.924;2023-10-13T01:43:24;96849.41;;;18.04;56.21
10135;BME280;5107;48.850;8.924;2023-10-13T01:45:49;96853.72;;;18.05;55.79
10135;BME280;5107;48.850;8.924;2023-10-13T01:48:17;96839.56;;;18.05;55.89
10135;BME280;5107;48.850;8.924;2023-10-13T01:50:46;96839.22;;;17.95;56.68
10135;BME280;5107;48.850;8.924;2023-10-13T01:53:13;96834.94;;;17.87;56.52
10135;BME280;5107;48.850;8.924;2023-10-13T01:55:43;96829.59;;;17.94;56.09
10135;BME280;5107;48.850;8.924;2023-10-13T01:58:10;96833.63;;;18.03;55.85
10135;BME280;5107;48.850;8.924;2023-10-13T02:00:39;96839.38;;;18.06;55.65
10135;BME280;5107;48.850;8.924;2023-10-13T02:03:10;96836.50;;;18.01;55.77
10135;BME280;5107;48.850;8.924;2023-10-13T02:05:47;96842.28;;;17.92;55.86
10135;BME280;5107;48.850;8.924;2023-10-13T02:08:20;96830.28;;;17.76;56.20
10135;BME280;5107;48.850;8.924;2023-10-13T02:10:53;96827.47;;;17.64;56.54
10135;BME280;5107;48.850;8.924;2023-10-13T02:13:20;96822.38;;;17.63;56.43
10135;BME280;5107;48.850;8.924;2023-10-13T02:15:47;96817.88;;;17.57;56.62
10135;BME280;5107;48.850;8.924;2023-10-13T02:18:19;96819.94;;;17.48;56.65
10135;BME280;5107;48.850;8.924;2023-10-13T02:21:03;96810.97;;;17.36;56.97
10135;BME280;5107;48.850;8.924;2023-10-13T02:23:30;96809.16;;;17.30;57.02
10135;BME280;5107;48.850;8.924;2023-10-13T02:26:01;96814.88;;;17.27;56.79
10135;BME280;5107;48.850;8.924;2023-10-13T02:28:35;96810.41;;;17.21;57.14
10135;BME280;5107;48.850;8.924;2023-10-13T02:31:04;96811.00;;;17.23;56.67
10135;BME280;5107;48.850;8.924;2023-10-13T02:33:30;96805.47;;;17.24;56.56
10135;BME280;5107;48.850;8.924;2023-10-13T02:36:00;96808.13;;;17.24;56.49
10135;BME280;5107;48.850;8.924;2023-10-13T02:38:30;96796.88;;;17.29;55.96
10135;BME280;5107;48.850;8.924;2023-10-13T02:41:01;96792.38;;;17.29;55.87
10135;BME280;5107;48.850;8.924;2023-10-13T02:43:35;96794.81;;;17.31;55.89
10135;BME280;5107;48.850;8.924;2023-10-13T02:46:03;96786.84;;;17.31;55.94
10135;BME280;5107;48.850;8.924;2023-10-13T02:48:30;96788.28;;;17.27;56.11
10135;BME280;5107;48.850;8.924;2023-10-13T02:51:06;96788.88;;;17.29;55.96
10135;BME280;5107;48.850;8.924;2023-10-13T02:53:44;96785.38;;;17.35;55.56
10135;BME280;5107;48.850;8.924;2023-10-13T02:56:15;96784.31;;;17.42;55.32
10135;BME280;5107;48.850;8.924;2023-10-13T02:58:47;96783.13;;;17.38;55.58
10135;BME280;5107;48.850;8.924;2023-10-13T03:01:17;96779.88;;;17.30;55.55
10135;BME280;5107;48.850;8.924;2023-10-13T03:03:50;96779.69;;;17.25;55.65
10135;BME280;5107;48.850;8.924;2023-10-13T03:06:20;96779.88;;;17.30;55.40
10135;BME280;5107;48.850;8.924;2023-10-13T03:09:00;96781.53;;;17.31;55.09
10135;BME280;5107;48.850;8.924;2023-10-13T03:11:39;96778.63;;;17.39;55.07
10135;BME280;5107;48.850;8.924;2023-10-13T03:14:09;96770.66;;;17.39;55.17
10135;BME280;5107;48.850;8.924;2023-10-13T03:16:45;96769.38;;;17.41;54.94
10135;BME280;5107;48.850;8.924;2023-10-13T03:19:11;96777.59;;;17.40;55.03
10135;BME280;5107;48.850;8.924;2023-10-13T03:21:36;96769.63;;;17.33;55.38
10135;BME280;5107;48.850;8.924;2023-10-13T03:24:02;96778.88;;;17.31;55.88
10135;BME280;5107;48.850;8.924;2023-10-13T03:26:32;96773.38;;;17.19;56.37
10135;BME280;5107;48.850;8.924;2023-10-13T03:29:03;96765.81;;;17.10;56.70
10135;BME280;5107;48.850;8.924;2023-10-13T03:31:32;96758.28;;;17.06;56.93
10135;BME280;5107;48.850;8.924;2023-10-13T03:34:03;96768.50;;;17.03;56.87
10135;BME280;5107;48.850;8.924;2023-10-13T03:36:29;96754.81;;;16.99;56.97
10135;BME280;5107;48.850;8.924;2023-10-13T03:39:29;96760.34;;;16.98;57.03
10135;BME280;5107;48.850;8.924;2023-10-13T03:41:57;96759.75;;;16.89;57.31
10135;BME280;5107;48.850;8.924;2023-10-13T03:44:23;96763.03;;;16.85;57.44
10135;BME280;5107;48.850;8.924;2023-10-13T03:46:48;96762.63;;;16.81;57.48
10135;BME280;5107;48.850;8.924;2023-10-13T03:49:15;96760.59;;;16.77;57.38
10135;BME280;5107;48.850;8.924;2023-10-13T03:51:45;96762.41;;;16.76;57.71
10135;BME280;5107;48.850;8.924;2023-10-13T03:54:13;96765.69;;;16.78;57.51
10135;BME280;5107;48.850;8.924;2023-10-13T03:56:40;96755.47;;;16.75;57.57
10135;BME280;5107;48.850;8.924;2023-10-13T03:59:07;96758.75;;;16.77;57.52
10135;BME280;5107;48.850;8.924;2023-10-13T04:01:38;96753.22;;;16.79;57.70
10135;BME280;5107;48.850;8.924;2023-10-13T04:04:16;96762.84;;;16.80;57.49
10135;BME280;5107;48.850;8.924;2023-10-13T04:06:55;96757.31;;;16.88;57.07
10135;BME280;5107;48.850;8.924;2023-10-13T04:09:39;96752.59;;;16.90;57.06
10135;BME280;5107;48.850;8.924;2023-10-13T04:12:14;96754.63;;;16.94;56.92
10135;BME280;5107;48.850;8.924;2023-10-13T04:14:58;96752.59;;;16.90;57.30
10135;BME280;5107;48.850;8.924;2023-10-13T04:17:24;96751.16;;;16.87;57.41
10135;BME280;5107;48.850;8.924;2023-10-13T04:19:53;96746.88;;;16.86;57.31
10135;BME280;5107;48.850;8.924;2023-10-13T04:22:35;96755.47;;;16.88;57.22
10135;BME280;5107;48.850;8.924;2023-10-13T04:25:19;96753.81;;;16.94;56.92
10135;BME280;5107;48.850;8.924;2023-10-13T04:28:07;96750.09;;;17.01;56.57
10135;BME280;5107;48.850;8.924;2023-10-13T04:30:42;96746.41;;;17.02;56.41
10135;BME280;5107;48.850;8.924;2023-10-13T04:33:28;96741.28;;;17.07;56.25
10135;BME280;5107;48.850;8.924;2023-10-13T04:36:04;96737.59;;;17.08;56.06
10135;BME280;5107;48.850;8.924;2023-10-13T04:38:49;96734.94;;;17.08;56.05
10135;BME280;5107;48.850;8.924;2023-10-13T04:41:21;96732.72;;;17.05;56.31
10135;BME280;5107;48.850;8.924;2023-10-13T04:43:49;96730.06;;;16.99;56.48
10135;BME280;5107;48.850;8.924;2023-10-13T04:46:21;96728.25;;;16.93;56.49
10135;BME280;5107;48.850;8.924;2023-10-13T04:49:20;96722.09;;;16.92;56.39
10135;BME280;5107;48.850;8.924;2023-10-13T04:51:56;96720.69;;;16.96;56.27
10135;BME280;5107;48.850;8.924;2023-10-13T04:54:28;96717.81;;;16.91;56.41
10135;BME280;5107;48.850;8.924;2023-10-13T04:57:11;96719.28;;;16.87;56.41
10135;BME280;5107;48.850;8.924;2023-10-13T04:59:47;96711.69;;;16.84;56.35
10135;BME280;5107;48.850;8.924;2023-10-13T05:02:42;96714.19;;;16.79;56.44
10135;BME280;5107;48.850;8.924;2023-10-13T05:05:26;96716.84;;;16.79;56.48
10135;BME280;5107;48.850;8.924;2023-10-13T05:08:10;96712.34;;;16.80;56.33
10135;BME280;5107;48.850;8.924;2023-10-13T05:10:54;96702.31;;;16.75;56.57
10135;BME280;5107;48.850;8.924;2023-10-13T05:13:38;96709.72;;;16.73;56.39
10135;BME280;5107;48.850;8.924;2023-10-13T05:16:21;96699.47;;;16.70;56.60
10135;BME280;5107;48.850;8.924;2023-10-13T05:19:05;96701.53;;;16.68;56.52
10135;BME280;5107;48.850;8.924;2023-10-13T05:21:49;96694.19;;;16.63;56.62
10135;BME280;5107;48.850;8.924;2023-10-13T05:24:33;96695.59;;;16.66;56.39
10135;BME280;5107;48.850;8.924;2023-10-13T05:27:17;96691.31;;;16.65;56.72
10135;BME280;5107;48.850;8.924;2023-10-13T05:30:01;96688.22;;;16.68;56.23
10135;BME280;5107;48.850;8.924;2023-10-13T05:32:45;96693.75;;;16.73;55.90
10135;BME280;5107;48.850;8.924;2023-10-13T05:35:30;96691.91;;;16.80;55.71
10135;BME280;5107;48.850;8.924;2023-10-13T05:38:14;96691.25;;;16.85;55.68
10135;BME280;5107;48.850;8.924;2023-10-13T05:41:00;96687.97;;;16.83;55.82
10135;BME280;5107;48.850;8.924;2023-10-13T05:43:45;96687.59;;;16.79;55.92
10135;BME280;5107;48.850;8.924;2023-10-13T05:46:29;96689.63;;;16.84;55.60
10135;BME280;5107;48.850;8.924;2023-10-13T05:49:07;96687.97;;;16.89;55.42
10135;BME280;5107;48.850;8.924;2023-10-13T05:51:37;96693.25;;;17.02;55.02
10135;BME280;5107;48.850;8.924;2023-10-13T05:54:18;96695.81;;;17.22;53.98
10135;BME280;5107;48.850;8.924;2023-10-13T05:56:50;96697.38;;;17.36;53.78
10135;BME280;5107;48.850;8.924;2023-10-13T05:59:36;96703.69;;;17.49;53.56
10135;BME280;5107;48.850;8.924;2023-10-13T06:02:21;96701.81;;;17.49;53.65
10135;BME280;5107;48.850;8.924;2023-10-13T06:05:06;96702.81;;;17.55;53.96
10135;BME280;5107;48.850;8.924;2023-10-13T06:07:51;96710.59;;;17.56;54.13
10135;BME280;5107;48.850;8.924;2023-10-13T06:10:35;96712.66;;;17.54;54.68
10135;BME280;5107;48.850;8.924;2023-10-13T06:13:19;96710.59;;;17.56;53.57
10135;BME280;5107;48.850;8.924;2023-10-13T06:16:08;96708.44;;;17.40;53.86
10135;BME280;5107;48.850;8.924;2023-10-13T06:18:52;96709.09;;;17.29;54.45
10135;BME280;5107;48.850;8.924;2023-10-13T06:21:36;96711.09;;;17.33;53.74
10135;BME280;5107;48.850;8.924;2023-10-13T06:24:20;96710.47;;;17.38;53.62
10135;BME280;5107;48.850;8.924;2023-10-13T06:27:04;96714.75;;;17.45;53.66
10135;BME280;5107;48.850;8.924;2023-10-13T06:29:48;96711.81;;;17.54;53.47
10135;BME280;5107;48.850;8.924;2023-10-13T06:32:14;96715.09;;;17.62;53.12
10135;BME280;5107;48.850;8.924;2023-10-13T06:34:41;96705.22;;;17.69;53.12
10135;BME280;5107;48.850;8.924;2023-10-13T06:37:15;96701.88;;;17.80;52.64
10135;BME280;5107;48.850;8.924;2023-10-13T06:40:01;96701.81;;;17.87;52.46
10135;BME280;5107;48.850;8.924;2023-10-13T06:42:47;96704.63;;;17.99;51.82
10135;BME280;5107;48.850;8.924;2023-10-13T06:45:13;96706.19;;;18.06;51.62
10135;BME280;5107;48.850;8.924;2023-10-13T06:47:41;96702.00;;;18.17;51.63
10135;BME280;5107;48.850;8.924;2023-10-13T06:50:13;96705.53;;;18.61;50.99
10135;BME280;5107;48.850;8.924;2023-10-13T06:52:43;96713.03;;;18.70;50.33
10135;BME280;5107;48.850;8.924;2023-10-13T06:55:08;96702.84;;;18.61;50.40
10135;BME280;5107;48.850;8.924;2023-10-13T06:57:45;96709.69;;;18.75;50.34
10135;BME280;5107;48.850;8.924;2023-10-13T07:00:12;96702.16;;;18.90;50.07
10135;BME280;5107;48.850;8.924;2023-10-13T07:02:48;96706.72;;;19.19;49.29
10135;BME280;5107;48.850;8.924;2023-10-13T07:05:17;96706.88;;;19.06;49.81
10135;BME280;5107;48.850;8.924;2023-10-13T07:07:45;96703.72;;;18.98;49.76
10135;BME280;5107;48.850;8.924;2023-10-13T07:10:11;96708.25;;;19.27;49.58
10135;BME280;5107;48.850;8.924;2023-10-13T07:12:38;96706.50;;;19.69;48.53
10135;BME280;5107;48.850;8.924;2023-10-13T07:15:08;96715.53;;;19.98;47.59
10135;BME280;5107;48.850;8.924;2023-10-13T07:17:48;96710.34;;;20.15;46.93
10135;BME280;5107;48.850;8.924;2023-10-13T07:20:20;96706.41;;;20.29;46.49
10135;BME280;5107;48.850;8.924;2023-10-13T07:22:54;96705.50;;;20.35;46.05
10135;BME280;5107;48.850;8.924;2023-10-13T07:25:31;96713.63;;;20.28;46.27
10135;BME280;5107;48.850;8.924;2023-10-13T07:28:03;96713.56;;;20.47;46.63
10135;BME280;5107;48.850;8.924;2023-10-13T07:30:29;96709.38;;;20.62;46.48
10135;BME280;5107;48.850;8.924;2023-10-13T07:32:56;96709.38;;;20.62;46.06
10135;BME280;5107;48.850;8.924;2023-10-13T07:35:24;96696.66;;;20.93;45.95
10135;BME280;5107;48.850;8.924;2023-10-13T07:37:50;96704.19;;;21.31;44.88
10135;BME280;5107;48.850;8.924;2023-10-13T07:40:22;96701.06;;;21.22;45.01
10135;BME280;5107;48.850;8.924;2023-10-13T07:42:50;96698.38;;;21.22;44.83
10135;BME280;5107;48.850;8.924;2023-10-13T07:45:16;96688.63;;;21.44;44.60
10135;BME280;5107;48.850;8.924;2023-10-13T07:47:50;96695.34;;;21.58;44.12
10135;BME280;5107;48.850;8.924;2023-10-13T07:50:16;96687.00;;;21.43;44.11
10135;BME280;5107;48.850;8.924;2023-10-13T07:52:50;96697.25;;;21.46;43.79
10135;BME280;5107;48.850;8.924;2023-10-13T07:55:47;96683.94;;;21.80;43.37
10135;BME280;5107;48.850;8.924;2023-10-13T07:58:13;96680.41;;;21.63;43.07
10135;BME280;5107;48.850;8.924;2023-10-13T08:00:39;96688.31;;;21.41;43.78
10135;BME280;5107;48.850;8.924;2023-10-13T08:03:11;96682.81;;;21.47;43.26
10135;BME280;5107;48.850;8.924;2023-10-13T08:05:40;96679.69;;;21.67;42.63
10135;BME280;5107;48.850;8.924;2023-10-13T08:08:21;96679.66;;;21.95;42.52
10135;BME280;5107;48.850;8.924;2023-10-13T08:10:47;96672.06;;;22.04;41.93
10135;BME280;5107;48.850;8.924;2023-10-13T08:13:12;96671.34;;;22.09;41.76
10135;BME280;5107;48.850;8.924;2023-10-13T08:15:41;96667.84;;;22.42;41.34
10135;BME280;5107;48.850;8.924;2023-10-13T08:18:13;96665.84;;;22.54;41.17
10135;BME280;5107;48.850;8.924;2023-10-13T08:20:57;96671.03;;;22.77;40.73
10135;BME280;5107;48.850;8.924;2023-10-13T08:23:29;96658.69;;;22.98;40.48
10135;BME280;5107;48.850;8.924;2023-10-13T08:26:25;96664.31;;;23.18;39.91
10135;BME280;5107;48.850;8.924;2023-10-13T08:29:09;96661.94;;;23.22;39.58
10135;BME280;5107;48.850;8.924;2023-10-13T08:31:44;96655.38;;;23.34;39.06
10135;BME280;5107;48.850;8.924;2023-10-13T08:34:15;96653.41;;;23.25;38.94
10135;BME280;5107;48.850;8.924;2023-10-13T08:36:48;96655.84;;;23.26;39.19
10135;BME280;5107;48.850;8.924;2023-10-13T08:39:13;96651.88;;;23.56;38.34
10135;BME280;5107;48.850;8.924;2023-10-13T08:42:08;96654.34;;;23.62;38.46
10135;BME280;5107;48.850;8.924;2023-10-13T08:44:44;96653.50;;;23.57;38.18
10135;BME280;5107;48.850;8.924;2023-10-13T08:47:14;96654.81;;;23.54;38.52
10135;BME280;5107;48.850;8.924;2023-10-13T08:49:44;96655.22;;;23.68;38.32
10135;BME280;5107;48.850;8.924;2023-10-13T08:52:17;96651.44;;;23.96;37.96
10135;BME280;5107;48.850;8.924;2023-10-13T08:55:17;96654.53;;;24.46;37.44
10135;BME280;5107;48.850;8.924;2023-10-13T08:58:04;96651.28;;;24.44;37.20
10135;BME280;5107;48.850;8.924;2023-10-13T09:00:40;96649.13;;;24.41;37.67
10135;BME280;5107;48.850;8.924;2023-10-13T09:03:38;96651.41;;;24.23;37.31
10135;BME280;5107;48.850;8.924;2023-10-13T09:06:13;96662.22;;;24.70;37.08
10135;BME280;5107;48.850;8.924;2023-10-13T09:08:40;96648.50;;;25.18;36.25
10135;BME280;5107;48.850;8.924;2023-10-13T09:11:25;96656.41;;;25.50;36.00
10135;BME280;5107;48.850;8.924;2023-10-13T09:13:51;96647.59;;;25.95;35.44
10135;BME280;5107;48.850;8.924;2023-10-13T09:16:17;96644.38;;;26.14;34.86
10135;BME280;5107;48.850;8.924;2023-10-13T09:19:08;96651.38;;;26.04;34.12
10135;BME280;5107;48.850;8.924;2023-10-13T09:21:40;96656.91;;;25.32;34.68
10135;BME280;5107;48.850;8.924;2023-10-13T09:24:08;96646.47;;;25.61;34.63
10135;BME280;5107;48.850;8.924;2023-10-13T09:26:52;96649.22;;;25.76;33.59
10135;BME280;5107;48.850;8.924;2023-10-13T09:29:21;96640.22;;;25.40;34.71
10135;BME280;5107;48.850;8.924;2023-10-13T09:31:49;96642.13;;;25.50;34.62
10135;BME280;5107;48.850;8.924;2023-10-13T09:34:25;96643.75;;;25.51;34.83
10135;BME280;5107;48.850;8.924;2023-10-13T09:36:57;96622.78;;;25.83;33.60
10135;BME280;5107;48.850;8.924;2023-10-13T09:39:24;96625.50;;;25.98;33.71
10135;BME280;5107;48.850;8.924;2023-10-13T09:42:00;96620.09;;;26.14;33.40
10135;BME280;5107;48.850;8.924;2023-10-13T09:44:26;96616.88;;;26.32;33.31
10135;BME280;5107;48.850;8.924;2023-10-13T09:47:01;96620.09;;;26.19;33.29
10135;BME280;5107;48.850;8.924;2023-10-13T09:49:39;96622.53;;;26.30;33.09
10135;BME280;5107;48.850;8.924;2023-10-13T09:52:16;96618.44;;;26.68;33.09
10135;BME280;5107;48.850;8.924;2023-10-13T09:54:53;96613.59;;;26.55;32.90
10135;BME280;5107;48.850;8.924;2023-10-13T09:57:28;96619.16;;;26.89;32.73
10135;BME280;5107;48.850;8.924;2023-10-13T10:00:09;96616.38;;;27.14;32.15
10135;BME280;5107;48.850;8.924;2023-10-13T10:02:54;96604.56;;;26.95;32.46
10135;BME280;5107;48.850;8.924;2023-10-13T10:05:26;96601.91;;;26.85;32.50
10135;BME280;5107;48.850;8.924;2023-10-13T10:07:56;96606.72;;;26.98;32.14
10135;BME280;5107;48.850;8.924;2023-10-13T10:10:47;96605.63;;;27.59;32.00
10135;BME280;5107;48.850;8.924;2023-10-13T10:13:18;96610.28;;;26.83;31.95
10135;BME280;5107;48.850;8.924;2023-10-13T10:15:49;96606.88;;;26.12;33.34
10135;BME280;5107;48.850;8.924;2023-10-13T10:18:23;96613.09;;;26.07;32.99
10135;BME280;5107;48.850;8.924;2023-10-13T10:20:51;96609.00;;;26.56;33.37
10135;BME280;5107;48.850;8.924;2023-10-13T10:23:29;96603.78;;;26.85;32.94
10135;BME280;5107;48.850;8.924;2023-10-13T10:26:12;96600.94;;;27.20;32.36
10135;BME280;5107;48.850;8.924;2023-10-13T10:28:45;96598.44;;;27.34;32.26
10135;BME280;5107;48.850;8.924;2023-10-13T10:31:11;96599.81;;;27.31;31.92
10135;BME280;5107;48.850;8.924;2023-10-13T10:33:45;96592.13;;;27.53;31.70
10135;BME280;5107;48.850;8.924;2023-10-13T10:36:11;96593.88;;;27.73;30.99
10135;BME280;5107;48.850;8.924;2023-10-13T10:38:53;96584.22;;;27.62;31.12
10135;BME280;5107;48.850;8.924;2023-10-13T10:41:28;96583.19;;;27.92;31.03
10135;BME280;5107;48.850;8.924;2023-10-13T10:44:17;96575.09;;;28.21;30.68
10135;BME280;5107;48.850;8.924;2023-10-13T10:47:10;96573.78;;;27.84;30.54
10135;BME280;5107;48.850;8.924;2023-10-13T10:49:38;96570.50;;;28.21;29.78
10135;BME280;5107;48.850;8.924;2023-10-13T10:52:08;96568.28;;;28.28;30.17
10135;BME280;5107;48.850;8.924;2023-10-13T10:54:39;96558.56;;;27.93;29.80
10135;BME280;5107;48.850;8.924;2023-10-13T10:57:09;96562.97;;;28.13;30.05
10135;BME280;5107;48.850;8.924;2023-10-13T10:59:38;96567.84;;;28.45;29.71
10135;BME280;5107;48.850;8.924;2023-10-13T11:02:04;96569.97;;;28.96;29.05
10135;BME280;5107;48.850;8.924;2023-10-13T11:04:29;96570.41;;;28.84;28.75
10135;BME280;5107;48.850;8.924;2023-10-13T11:07:06;96561.91;;;28.67;29.28
10135;BME280;5107;48.850;8.924;2023-10-13T11:09:34;96556.59;;;28.57;29.07
10135;BME280;5107;48.850;8.924;2023-10-13T11:14:31;96547.03;;;28.64;28.27
10135;BME280;5107;48.850;8.924;2023-10-13T11:16:57;96549.88;;;28.78;28.48
10135;BME280;5107;48.850;8.924;2023-10-13T11:19:39;96544.47;;;28.25;28.39
10135;BME280;5107;48.850;8.924;2023-10-13T11:22:17;96532.25;;;27.99;28.74
10135;BME280;5107;48.850;8.924;2023-10-13T11:24:59;96528.53;;;27.95;28.67
10135;BME280;5107;48.850;8.924;2023-10-13T11:27:32;96530.09;;;27.96;28.95
10135;BME280;5107;48.850;8.924;2023-10-13T11:30:16;96533.94;;;27.95;28.47
10135;BME280;5107;48.850;8.924;2023-10-13T11:32:56;96521.81;;;28.45;28.18
10135;BME280;5107;48.850;8.924;2023-10-13T11:35:21;96520.69;;;28.46;28.25
10135;BME280;5107;48.850;8.924;2023-10-13T11:37:50;96523.97;;;28.91;27.51
10135;BME280;5107;48.850;8.924;2023-10-13T11:40:31;96516.72;;;29.24;27.49
10135;BME280;5107;48.850;8.924;2023-10-13T11:43:11;96522.44;;;29.03;27.31
10135;BME280;5107;48.850;8.924;2023-10-13T11:45:49;96515.09;;;29.23;27.27
10135;BME280;5107;48.850;8.924;2023-10-13T11:48:25;96519.38;;;29.29;26.81
10135;BME280;5107;48.850;8.924;2023-10-13T11:51:11;96500.09;;;28.93;27.44
10135;BME280;5107;48.850;8.924;2023-10-13T11:53:44;96509.16;;;28.83;27.04
10135;BME280;5107;48.850;8.924;2023-10-13T11:56:10;96506.75;;;28.82;27.14
10135;BME280;5107;48.850;8.924;2023-10-13T11:58:37;96504.31;;;28.80;26.96
10135;BME280;5107;48.850;8.924;2023-10-13T12:01:02;96502.69;;;28.79;26.82
10135;BME280;5107;48.850;8.924;2023-10-13T12:03:41;96501.19;;;29.11;27.13
10135;BME280;5107;48.850;8.924;2023-10-13T12:06:25;96501.28;;;29.43;26.84
10135;BME280;5107;48.850;8.924;2023-10-13T12:09:04;96481.78;;;29.03;26.11
10135;BME280;5107;48.850;8.924;2023-10-13T12:11:59;96484.41;;;29.46;26.34
10135;BME280;5107;48.850;8.924;2023-10-13T12:14:29;96473.81;;;29.63;25.83
10135;BME280;5107;48.850;8.924;2023-10-13T12:17:01;96478.22;;;29.92;26.36
10135;BME280;5107;48.850;8.924;2023-10-13T12:19:30;96470.34;;;29.44;25.88
10135;BME280;5107;48.850;8.924;2023-10-13T12:21:57;96466.03;;;29.43;25.81
10135;BME280;5107;48.850;8.924;2023-10-13T12:24:23;96455.69;;;29.91;26.17
10135;BME280;5107;48.850;8.924;2023-10-13T12:27:02;96454.28;;;29.48;25.63
10135;BME280;5107;48.850;8.924;2023-10-13T12:29:28;96458.41;;;29.91;26.12
10135;BME280;5107;48.850;8.924;2023-10-13T12:31:56;96452.00;;;30.14;26.32
10135;BME280;5107;48.850;8.924;2023-10-13T12:34:36;96450.25;;;29.91;26.26
10135;BME280;5107;48.850;8.924;2023-10-13T12:37:20;96443.97;;;30.50;25.80
10135;BME280;5107;48.850;8.924;2023-10-13T12:40:17;96449.22;;;30.97;26.06
10135;BME280;5107;48.850;8.924;2023-10-13T12:43:02;96442.16;;;30.05;24.94
10135;BME280;5107;48.850;8.924;2023-10-13T12:45:48;96443.84;;;29.87;25.39
10135;BME280;5107;48.850;8.924;2023-10-13T12:48:33;96436.00;;;30.13;25.66
10135;BME280;5107;48.850;8.924;2023-10-13T12:51:18;96432.06;;;30.46;25.14
10135;BME280;5107;48.850;8.924;2023-10-13T12:53:53;96428.59;;;30.60;25.26
10135;BME280;5107;48.850;8.924;2023-10-13T12:56:19;96422.81;;;30.75;24.39
10135;BME280;5107;48.850;8.924;2023-10-13T12:58:51;96421.66;;;30.53;24.05
10135;BME280;5107;48.850;8.924;2023-10-13T13:01:21;96419.34;;;30.20;25.18
10135;BME280;5107;48.850;8.924;2023-10-13T13:03:47;96415.81;;;30.05;24.80
10135;BME280;5107;48.850;8.924;2023-10-13T13:06:20;96405.84;;;30.42;24.99
10135;BME280;5107;48.850;8.924;2023-10-13T13:08:56;96409.38;;;30.01;24.28
10135;BME280;5107;48.850;8.924;2023-10-13T13:11:22;96404.97;;;30.19;25.05
10135;BME280;5107;48.850;8.924;2023-10-13T13:13:48;96398.31;;;29.98;24.58
10135;BME280;5107;48.850;8.924;2023-10-13T13:16:14;96404.59;;;29.79;24.54
10135;BME280;5107;48.850;8.924;2023-10-13T13:18:40;96409.34;;;29.88;25.19
10135;BME280;5107;48.850;8.924;2023-10-13T13:21:06;96406.13;;;29.86;25.03
10135;BME280;5107;48.850;8.924;2023-10-13T13:23:32;96396.56;;;29.74;24.94
10135;BME280;5107;48.850;8.924;2023-10-13T13:25:59;96405.09;;;29.81;24.67
10135;BME280;5107;48.850;8.924;2023-10-13T13:28:25;96399.78;;;29.90;24.83
10135;BME280;5107;48.850;8.924;2023-10-13T13:30:53;96395.56;;;29.70;24.47
10135;BME280;5107;48.850;8.924;2023-10-13T13:33:19;96382.69;;;29.76;24.61
10135;BME280;5107;48.850;8.924;2023-10-13T13:35:49;96381.41;;;30.01;24.74
10135;BME280;5107;48.850;8.924;2023-10-13T13:38:14;96380.22;;;30.07;24.29
10135;BME280;5107;48.850;8.924;2023-10-13T13:40:47;96371.06;;;30.03;24.58
10135;BME280;5107;48.850;8.924;2023-10-13T13:43:15;96364.38;;;29.81;24.86
10135;BME280;5107;48.850;8.924;2023-10-13T13:45:58;96364.69;;;29.66;24.96
10135;BME280;5107;48.850;8.924;2023-10-13T13:48:26;96355.41;;;29.40;25.09
10135;BME280;5107;48.850;8.924;2023-10-13T13:50:52;96361.63;;;29.40;25.31